createdAt,value
2022-10-19T00:09:00.523Z,77.85
2022-10-19T00:19:06.269Z,79.19
2022-10-19T00:29:13.411Z,80.93
2022-10-19T00:39:18.132Z,83.13
2022-10-19T00:49:24.786Z,82.57
2022-10-19T00:59:31.817Z,83.78
2022-10-19T01:09:36.551Z,83.14
2022-10-19T01:20:11.566Z,84.50
2022-10-19T01:30:23.648Z,85.30
2022-10-19T01:40:32.166Z,86.12
2022-10-19T01:50:41.806Z,86.59
2022-10-19T02:00:47.472Z,91.18
2022-10-19T02:10:52.359Z,90.53
2022-10-19T02:20:55.973Z,90.33
2022-10-19T02:31:00.921Z,91.10
2022-10-19T02:41:12.177Z,90.20
2022-10-19T02:51:36.415Z,91.89
2022-10-19T03:01:39.335Z,91.23
2022-10-19T03:11:43.665Z,90.76
2022-10-19T03:21:46.746Z,92.00
2022-10-19T03:31:51.200Z,90.92
2022-10-19T03:41:54.266Z,91.29
2022-10-19T03:51:58.592Z,90.60
2022-10-19T04:02:01.503Z,90.82
2022-10-19T04:12:06.077Z,90.81
2022-10-19T04:22:08.915Z,90.79
2022-10-19T04:32:13.220Z,91.70
2022-10-19T04:42:16.060Z,91.34
2022-10-19T04:52:20.223Z,91.33
2022-10-19T05:02:23.284Z,91.40
2022-10-19T05:12:27.500Z,91.25
2022-10-19T05:22:30.491Z,92.13
2022-10-19T05:32:34.842Z,92.30
2022-10-19T05:42:56.534Z,92.01
2022-10-19T05:53:00.833Z,91.63
2022-10-19T06:03:03.931Z,92.39
2022-10-19T06:13:08.253Z,91.76
2022-10-19T06:23:11.278Z,90.93
2022-10-19T06:33:15.727Z,90.50
2022-10-19T06:43:18.677Z,90.63
2022-10-19T06:53:22.962Z,90.99
2022-10-19T07:03:26.515Z,91.82
2022-10-19T07:13:32.114Z,92.36
2022-10-19T07:23:37.206Z,91.82
2022-10-19T07:33:41.721Z,93.32
2022-10-19T07:43:46.063Z,92.95
2022-10-19T07:53:50.370Z,93.32
2022-10-19T08:14:17.994Z,92.57
2022-10-19T08:24:21.842Z,92.40
2022-10-19T08:34:26.235Z,91.98
2022-10-19T08:45:04.865Z,94.03
2022-10-19T08:55:18.150Z,91.98
2022-10-19T09:05:33.334Z,92.17
2022-10-19T09:15:42.649Z,93.76
2022-10-19T09:25:45.470Z,91.24
2022-10-19T09:35:50.627Z,92.46
2022-10-19T09:45:56.515Z,92.47
2022-10-19T09:56:06.509Z,90.78
2022-10-19T10:06:13.901Z,89.75
2022-10-19T10:16:21.420Z,87.90
2022-10-19T10:26:26.906Z,88.00
2022-10-19T10:36:32.930Z,86.14
2022-10-19T10:46:38.268Z,84.26
2022-10-19T10:56:44.219Z,84.06
2022-10-19T11:06:54.658Z,82.36
2022-10-19T11:17:04.611Z,79.30
2022-10-19T11:27:22.232Z,77.23
2022-10-19T11:37:31.459Z,78.58
2022-10-19T11:47:55.539Z,76.47
2022-10-19T11:58:09.036Z,77.12
2022-10-19T12:08:30.710Z,76.71
2022-10-19T12:18:40.335Z,75.64
2022-10-19T12:28:48.706Z,74.85
2022-10-19T12:39:02.098Z,74.69
2022-10-19T12:49:38.468Z,73.19
2022-10-19T12:59:43.636Z,71.91
2022-10-19T13:09:49.344Z,72.42
2022-10-19T13:20:33.765Z,72.45
2022-10-19T13:31:06.226Z,72.04
2022-10-19T13:41:21.591Z,71.85
2022-10-19T13:51:33.727Z,71.04
2022-10-19T14:01:50.221Z,71.62
2022-10-19T14:12:06.259Z,71.74
2022-10-19T14:22:21.574Z,71.82
2022-10-19T14:32:28.841Z,72.10
2022-10-19T14:42:43.612Z,70.77
2022-10-19T14:52:50.505Z,70.87
2022-10-19T15:02:59.261Z,70.08
2022-10-19T15:13:06.106Z,68.59
2022-10-19T15:23:35.633Z,67.63
2022-10-19T15:33:43.174Z,67.18
2022-10-19T15:43:52.733Z,67.63
2022-10-19T15:53:58.573Z,67.89
2022-10-19T16:04:01.636Z,67.95
2022-10-19T16:14:05.993Z,68.97
2022-10-19T16:24:09.620Z,69.95
2022-10-19T16:34:14.196Z,69.76
2022-10-19T16:44:17.190Z,70.12
2022-10-19T16:54:21.515Z,70.45
2022-10-19T17:04:25.950Z,71.32
2022-10-19T17:14:30.983Z,72.07
2022-10-19T17:24:33.841Z,72.57
2022-10-19T17:34:38.185Z,74.47
2022-10-19T17:44:40.955Z,74.76
2022-10-19T17:54:54.509Z,74.84
2022-10-19T18:05:09.568Z,75.56
2022-10-19T18:15:14.234Z,75.51
2022-10-19T18:25:21.721Z,75.40
2022-10-19T18:35:38.035Z,75.26
2022-10-19T18:45:41.007Z,75.85
2022-10-19T18:55:46.156Z,76.04
2022-10-19T19:05:49.325Z,75.94
2022-10-19T19:16:00.378Z,76.79
2022-10-19T19:26:04.436Z,76.93
2022-10-19T19:36:10.617Z,77.00
2022-10-19T19:46:15.016Z,75.63
2022-10-19T19:56:20.707Z,75.29
2022-10-19T20:06:25.980Z,74.92
2022-10-19T20:16:33.713Z,75.59
2022-10-19T20:26:37.259Z,79.54
2022-10-19T20:36:42.751Z,75.81
2022-10-19T20:46:46.431Z,77.12
2022-10-19T20:56:50.696Z,77.32
2022-10-19T21:06:53.682Z,77.16
2022-10-19T21:16:59.554Z,77.64
2022-10-19T21:27:04.919Z,78.33
2022-10-19T21:37:09.023Z,77.46
2022-10-19T21:47:11.823Z,78.89
2022-10-19T21:57:16.329Z,78.82
2022-10-19T22:07:19.426Z,79.25
2022-10-19T22:17:23.783Z,80.41
2022-10-19T22:27:26.765Z,81.02
2022-10-19T22:37:30.895Z,81.14
2022-10-19T22:47:33.775Z,82.02
2022-10-19T22:57:38.058Z,81.98
2022-10-19T23:07:41.103Z,81.93
2022-10-19T23:17:45.423Z,81.54
2022-10-19T23:27:49.454Z,82.30
2022-10-19T23:37:53.745Z,82.64
2022-10-19T23:47:56.639Z,82.05
2022-10-19T23:58:00.896Z,81.75
